createdAt,value
2022-10-24T00:00:49.563Z,75.05
2022-10-24T00:03:16.319Z,74.90
2022-10-24T00:05:45.060Z,74.74
2022-10-24T00:08:12.070Z,74.48
2022-10-24T00:10:42.345Z,74.28
2022-10-24T00:13:09.606Z,74.08
2022-10-24T00:15:36.334Z,74.08
2022-10-24T00:18:03.403Z,73.92
2022-10-24T00:20:30.101Z,73.87
2022-10-24T00:22:56.822Z,73.92
2022-10-24T00:25:23.512Z,73.97
2022-10-24T00:27:50.209Z,74.00
2022-10-24T00:30:16.941Z,73.85
2022-10-24T00:32:43.767Z,73.72
2022-10-24T00:35:11.104Z,73.93
2022-10-24T00:37:37.828Z,73.70
2022-10-24T00:40:06.124Z,73.87
2022-10-24T00:42:32.834Z,73.74
2022-10-24T00:44:59.581Z,73.97
2022-10-24T00:47:27.022Z,73.66
2022-10-24T00:50:14.038Z,73.88
2022-10-24T00:52:43.516Z,73.83
2022-10-24T00:55:10.763Z,73.76
2022-10-24T00:57:46.205Z,73.86
2022-10-24T01:00:17.638Z,73.94
2022-10-24T01:02:45.246Z,73.81
2022-10-24T01:05:12.701Z,73.81
2022-10-24T01:07:39.358Z,73.74
2022-10-24T01:10:26.832Z,73.61
2022-10-24T01:13:08.989Z,73.60
2022-10-24T01:15:56.233Z,73.54
2022-10-24T01:18:41.582Z,73.73
2022-10-24T01:21:24.695Z,73.57
2022-10-24T01:24:29.167Z,73.61
2022-10-24T01:27:04.405Z,73.72
2022-10-24T01:29:48.735Z,73.66
2022-10-24T01:32:26.578Z,73.52
2022-10-24T01:35:01.036Z,73.62
2022-10-24T01:37:39.682Z,73.99
2022-10-24T01:40:14.081Z,73.85
2022-10-24T01:42:41.930Z,73.80
2022-10-24T01:45:10.180Z,74.00
2022-10-24T01:47:45.144Z,74.03
2022-10-24T01:50:14.163Z,73.85
2022-10-24T01:52:43.308Z,73.80
2022-10-24T01:55:10.719Z,73.77
2022-10-24T01:57:38.882Z,73.60
2022-10-24T02:00:08.023Z,73.58
2022-10-24T02:02:38.889Z,73.54
2022-10-24T02:05:11.571Z,73.46
2022-10-24T02:07:39.793Z,73.57
2022-10-24T02:10:11.045Z,73.75
2022-10-24T02:12:41.499Z,73.81
2022-10-24T02:15:14.835Z,73.85
2022-10-24T02:17:41.867Z,73.99
2022-10-24T02:20:09.373Z,74.11
2022-10-24T02:22:47.956Z,74.12
2022-10-24T02:25:24.181Z,74.25
2022-10-24T02:27:55.192Z,74.20
2022-10-24T02:30:24.829Z,74.29
2022-10-24T02:32:55.086Z,74.48
2022-10-24T02:35:26.622Z,74.75
2022-10-24T02:37:57.795Z,74.57
2022-10-24T02:40:24.602Z,74.91
2022-10-24T02:42:53.943Z,74.85
2022-10-24T02:45:21.494Z,74.70
2022-10-24T02:47:48.731Z,74.74
2022-10-24T02:50:15.450Z,74.66
2022-10-24T02:52:43.324Z,74.78
2022-10-24T02:55:11.712Z,74.54
2022-10-24T02:57:39.077Z,74.60
2022-10-24T03:00:06.970Z,74.61
2022-10-24T03:02:33.679Z,74.65
2022-10-24T03:05:00.466Z,74.70
2022-10-24T03:07:27.215Z,74.55
2022-10-24T03:09:53.938Z,74.66
2022-10-24T03:12:20.787Z,74.60
2022-10-24T03:14:47.501Z,74.53
2022-10-24T03:17:14.263Z,74.55
2022-10-24T03:19:40.947Z,74.62
2022-10-24T03:22:07.633Z,74.73
2022-10-24T03:24:44.068Z,74.73
2022-10-24T03:27:11.509Z,74.77
2022-10-24T03:29:38.228Z,75.02
2022-10-24T03:32:05.562Z,74.86
2022-10-24T03:34:32.373Z,74.76
2022-10-24T03:36:59.159Z,74.87
2022-10-24T03:39:25.962Z,74.87
2022-10-24T03:41:52.646Z,74.55
2022-10-24T03:44:19.336Z,74.65
2022-10-24T03:46:46.055Z,74.91
2022-10-24T03:49:12.743Z,74.86
2022-10-24T03:51:39.441Z,74.79
2022-10-24T03:54:06.159Z,75.25
2022-10-24T03:56:32.846Z,75.02
2022-10-24T03:58:59.520Z,75.02
2022-10-24T04:01:26.341Z,75.11
2022-10-24T04:03:53.065Z,75.01
2022-10-24T04:06:19.767Z,75.06
2022-10-24T04:08:46.444Z,75.10
2022-10-24T04:11:13.173Z,75.06
2022-10-24T04:13:40.743Z,75.15
2022-10-24T04:16:08.309Z,75.35
2022-10-24T04:18:35.046Z,75.38
2022-10-24T04:21:01.855Z,75.44
2022-10-24T04:23:30.754Z,75.47
2022-10-24T04:25:57.488Z,75.40
2022-10-24T04:28:24.177Z,75.43
2022-10-24T04:30:55.587Z,75.15
2022-10-24T04:33:22.626Z,75.22
2022-10-24T04:35:49.979Z,75.19
2022-10-24T04:38:16.765Z,75.05
2022-10-24T04:40:48.888Z,75.36
2022-10-24T04:43:15.635Z,75.33
2022-10-24T04:45:42.363Z,75.25
2022-10-24T04:48:09.063Z,75.47
2022-10-24T04:50:36.206Z,75.32
2022-10-24T04:53:02.994Z,75.26
2022-10-24T04:55:29.706Z,75.26
2022-10-24T04:57:56.414Z,75.08
2022-10-24T05:00:23.116Z,75.31
2022-10-24T05:02:50.696Z,75.37
2022-10-24T05:05:20.782Z,75.18
2022-10-24T05:07:47.656Z,75.39
2022-10-24T05:10:15.553Z,75.50
2022-10-24T05:12:44.270Z,75.34
2022-10-24T05:15:11.822Z,75.53
2022-10-24T05:17:38.487Z,75.39
2022-10-24T05:20:05.734Z,75.41
2022-10-24T05:22:32.452Z,75.56
2022-10-24T05:24:59.157Z,75.66
2022-10-24T05:27:25.887Z,75.53
2022-10-24T05:29:55.444Z,75.87
2022-10-24T05:32:23.764Z,75.66
2022-10-24T05:34:50.499Z,76.04
2022-10-24T05:37:17.355Z,75.72
2022-10-24T05:39:44.068Z,75.78
2022-10-24T05:42:11.154Z,75.66
2022-10-24T05:44:38.117Z,75.75
2022-10-24T05:47:05.061Z,76.09
2022-10-24T05:49:32.008Z,75.81
2022-10-24T05:51:58.808Z,75.77
2022-10-24T05:54:30.235Z,75.56
2022-10-24T05:57:04.508Z,75.55
2022-10-24T05:59:31.258Z,75.50
2022-10-24T06:01:58.243Z,75.59
2022-10-24T06:04:25.062Z,75.67
2022-10-24T06:06:51.740Z,75.60
2022-10-24T06:09:18.449Z,75.57
2022-10-24T06:11:45.173Z,75.33
2022-10-24T06:14:11.847Z,75.70
2022-10-24T06:16:38.570Z,75.75
2022-10-24T06:19:05.266Z,75.98
2022-10-24T06:21:31.968Z,75.92
2022-10-24T06:23:58.752Z,75.82
2022-10-24T06:26:25.513Z,75.84
2022-10-24T06:28:52.352Z,75.94
2022-10-24T06:31:20.584Z,76.02
2022-10-24T06:33:47.376Z,75.94
2022-10-24T06:36:14.417Z,76.00
2022-10-24T06:38:41.334Z,76.05
2022-10-24T06:41:09.511Z,75.88
2022-10-24T06:43:36.885Z,76.00
2022-10-24T06:46:08.357Z,76.09
2022-10-24T06:48:35.985Z,76.26
2022-10-24T06:51:03.368Z,76.37
2022-10-24T06:53:30.276Z,76.29
2022-10-24T06:56:03.109Z,76.34
2022-10-24T06:58:33.984Z,76.38
2022-10-24T07:01:00.833Z,76.04
2022-10-24T07:03:27.632Z,76.43
2022-10-24T07:05:54.350Z,76.36
2022-10-24T07:08:21.105Z,76.36
2022-10-24T07:10:47.803Z,76.30
2022-10-24T07:13:14.497Z,76.54
2022-10-24T07:15:41.236Z,76.65
2022-10-24T07:18:14.098Z,76.76
2022-10-24T07:20:40.843Z,76.84
2022-10-24T07:23:07.530Z,76.97
2022-10-24T07:25:34.220Z,77.14
2022-10-24T07:28:00.929Z,77.26
2022-10-24T07:30:27.605Z,77.59
2022-10-24T07:32:55.764Z,77.61
2022-10-24T07:35:23.612Z,77.48
2022-10-24T07:37:50.776Z,77.69
2022-10-24T07:40:17.796Z,77.67
2022-10-24T07:42:44.559Z,77.80
2022-10-24T07:45:11.417Z,77.77
2022-10-24T07:47:38.161Z,77.77
2022-10-24T07:50:05.945Z,77.54
2022-10-24T07:52:32.634Z,77.46
2022-10-24T07:54:59.342Z,77.47
2022-10-24T07:57:26.051Z,77.53
2022-10-24T07:59:52.824Z,77.62
2022-10-24T08:02:19.612Z,77.64
2022-10-24T08:04:46.405Z,77.48
2022-10-24T08:07:13.623Z,77.29
2022-10-24T08:09:42.460Z,77.12
2022-10-24T08:12:09.444Z,76.98
2022-10-24T08:14:40.310Z,76.85
2022-10-24T08:17:07.073Z,76.86
2022-10-24T08:19:34.419Z,77.04
2022-10-24T08:22:01.565Z,76.88
2022-10-24T08:24:28.637Z,76.73
2022-10-24T08:26:56.615Z,76.65
2022-10-24T08:29:23.632Z,76.47
2022-10-24T08:31:53.941Z,76.54
2022-10-24T08:34:21.651Z,76.27
2022-10-24T08:36:49.572Z,76.28
2022-10-24T08:39:17.381Z,76.26
2022-10-24T08:41:57.975Z,76.40
2022-10-24T08:44:29.609Z,76.10
2022-10-24T08:47:05.347Z,76.04
2022-10-24T08:50:24.006Z,75.93
2022-10-24T08:52:57.009Z,76.14
2022-10-24T08:55:51.070Z,75.92
2022-10-24T08:58:31.061Z,76.23
2022-10-24T09:01:00.604Z,75.81
2022-10-24T09:03:56.905Z,75.83
2022-10-24T09:06:29.566Z,75.58
2022-10-24T09:09:02.088Z,75.77
2022-10-24T09:11:40.919Z,75.32
2022-10-24T09:14:13.407Z,75.50
2022-10-24T09:16:42.854Z,75.30
2022-10-24T09:19:14.864Z,75.29
2022-10-24T09:21:42.557Z,75.27
2022-10-24T09:24:21.498Z,75.23
2022-10-24T09:26:48.679Z,75.25
2022-10-24T09:29:15.365Z,75.12
2022-10-24T09:31:42.110Z,75.18
2022-10-24T09:34:09.399Z,75.34
2022-10-24T09:36:36.105Z,75.53
2022-10-24T09:39:23.025Z,75.25
2022-10-24T09:41:50.070Z,75.25
2022-10-24T09:44:31.057Z,75.37
2022-10-24T09:46:58.085Z,75.16
2022-10-24T09:49:31.682Z,75.10
2022-10-24T09:52:18.884Z,74.93
2022-10-24T09:54:47.163Z,74.69
2022-10-24T10:00:00.182Z,74.85
2022-10-24T10:02:37.595Z,75.09
2022-10-24T10:05:04.240Z,74.93
2022-10-24T10:07:34.830Z,74.99
2022-10-24T10:10:26.338Z,74.86
2022-10-24T10:13:00.557Z,74.79
2022-10-24T10:15:35.686Z,74.54
2022-10-24T10:18:20.945Z,74.38
2022-10-24T10:21:09.902Z,74.26
2022-10-24T10:23:42.421Z,74.27
2022-10-24T10:26:12.398Z,74.11
2022-10-24T10:28:45.423Z,74.35
2022-10-24T10:31:20.353Z,74.54
2022-10-24T10:34:20.312Z,74.80
2022-10-24T10:37:10.171Z,74.83
2022-10-24T10:40:01.067Z,74.51
2022-10-24T10:42:36.465Z,74.37
2022-10-24T10:45:38.967Z,74.20
2022-10-24T10:48:45.167Z,74.08
2022-10-24T10:51:20.878Z,74.09
2022-10-24T10:53:50.884Z,73.60
2022-10-24T10:56:52.388Z,73.38
2022-10-24T10:59:28.554Z,73.34
2022-10-24T11:02:20.512Z,73.12
2022-10-24T11:04:57.288Z,73.12
2022-10-24T11:07:45.367Z,73.18
2022-10-24T11:10:16.744Z,73.04
2022-10-24T11:12:45.384Z,73.19
2022-10-24T11:15:30.041Z,73.14
2022-10-24T11:18:13.107Z,72.87
2022-10-24T11:20:51.167Z,72.99
2022-10-24T11:26:36.041Z,73.40
2022-10-24T11:29:11.243Z,73.20
2022-10-24T11:31:40.689Z,73.44
2022-10-24T11:34:10.266Z,73.31
2022-10-24T11:36:43.427Z,73.39
2022-10-24T11:39:47.788Z,73.31
2022-10-24T11:42:51.757Z,72.91
2022-10-24T11:45:20.777Z,72.97
2022-10-24T11:47:55.832Z,72.93
2022-10-24T11:50:28.742Z,72.90
2022-10-24T11:53:15.109Z,72.76
2022-10-24T11:55:47.048Z,72.77
2022-10-24T11:58:20.447Z,72.49
2022-10-24T12:01:13.352Z,72.63
2022-10-24T12:04:02.681Z,72.87
2022-10-24T12:06:57.281Z,72.54
2022-10-24T12:09:45.062Z,72.61
2022-10-24T12:12:40.075Z,72.58
2022-10-24T12:15:35.492Z,72.59
2022-10-24T12:18:06.186Z,72.75
2022-10-24T12:20:33.316Z,72.39
2022-10-24T12:23:01.049Z,72.56
2022-10-24T12:25:36.473Z,72.48
2022-10-24T12:28:04.416Z,72.75
2022-10-24T12:30:33.929Z,72.88
2022-10-24T12:33:26.727Z,72.42
2022-10-24T12:35:57.174Z,72.73
2022-10-24T12:38:26.777Z,72.64
2022-10-24T12:41:05.818Z,72.94
2022-10-24T12:43:43.353Z,72.83
2022-10-24T12:46:21.781Z,72.91
2022-10-24T12:48:58.792Z,72.78
2022-10-24T12:51:40.027Z,72.80
2022-10-24T12:54:15.968Z,72.88
2022-10-24T12:56:52.137Z,72.67
2022-10-24T12:59:24.578Z,72.59
2022-10-24T13:02:19.963Z,72.73
2022-10-24T13:05:22.238Z,72.64
2022-10-24T13:07:58.594Z,72.54
2022-10-24T13:10:46.912Z,72.83
2022-10-24T13:13:44.013Z,72.66
2022-10-24T13:16:37.049Z,73.16
2022-10-24T13:19:06.661Z,73.09
2022-10-24T13:24:16.714Z,72.49
2022-10-24T13:26:45.580Z,72.29
2022-10-24T13:29:21.349Z,72.44
2022-10-24T13:31:50.377Z,72.67
2022-10-24T13:34:29.155Z,72.41
2022-10-24T13:37:10.975Z,72.46
2022-10-24T13:39:53.091Z,72.27
2022-10-24T13:42:26.812Z,72.72
2022-10-24T13:44:59.092Z,72.29
2022-10-24T13:47:32.346Z,72.79
2022-10-24T13:50:22.582Z,72.43
2022-10-24T13:52:57.720Z,72.65
2022-10-24T13:55:36.270Z,72.70
2022-10-24T13:58:05.852Z,72.70
2022-10-24T14:00:35.639Z,72.75
2022-10-24T14:03:05.008Z,72.87
2022-10-24T14:05:35.413Z,72.75
2022-10-24T14:08:02.586Z,73.10
2022-10-24T14:10:30.153Z,73.08
2022-10-24T14:12:57.226Z,73.30
2022-10-24T14:15:30.770Z,73.33
2022-10-24T14:18:00.649Z,73.38
2022-10-24T14:20:28.895Z,73.38
2022-10-24T14:22:56.186Z,73.57
2022-10-24T14:25:36.013Z,73.40
2022-10-24T14:28:10.298Z,73.37
2022-10-24T14:30:37.020Z,73.40
2022-10-24T14:33:12.760Z,73.32
2022-10-24T14:35:39.959Z,73.34
2022-10-24T14:38:09.722Z,73.16
2022-10-24T14:40:36.610Z,73.21
2022-10-24T14:43:03.413Z,73.30
2022-10-24T14:45:30.837Z,73.41
2022-10-24T14:47:59.250Z,73.28
2022-10-24T14:50:43.266Z,73.46
2022-10-24T14:53:27.629Z,73.40
2022-10-24T14:55:57.623Z,73.24
2022-10-24T14:58:30.061Z,73.36
2022-10-24T15:00:58.552Z,73.33
2022-10-24T15:03:26.240Z,73.70
2022-10-24T15:06:10.728Z,73.50
2022-10-24T15:11:24.496Z,73.75
2022-10-24T15:14:06.226Z,73.68
2022-10-24T15:16:40.666Z,73.58
2022-10-24T15:19:13.270Z,73.68
2022-10-24T15:21:45.096Z,74.05
2022-10-24T15:24:23.937Z,73.80
2022-10-24T15:26:50.969Z,74.06
2022-10-24T15:29:22.464Z,74.19
2022-10-24T15:31:51.048Z,73.92
2022-10-24T15:34:22.715Z,73.92
2022-10-24T15:36:51.456Z,74.23
2022-10-24T15:39:20.663Z,73.77
2022-10-24T15:41:47.409Z,74.03
2022-10-24T15:44:26.595Z,74.02
2022-10-24T15:46:53.484Z,74.05
2022-10-24T15:49:20.216Z,73.74
2022-10-24T15:51:50.209Z,73.65
2022-10-24T15:54:19.770Z,73.93
2022-10-24T15:56:46.974Z,74.04
2022-10-24T15:59:13.925Z,73.94
2022-10-24T16:01:48.393Z,74.10
2022-10-24T16:04:15.312Z,73.96
2022-10-24T16:06:42.005Z,74.10
2022-10-24T16:09:27.659Z,74.10
2022-10-24T16:11:55.048Z,74.17
2022-10-24T16:14:22.870Z,74.25
2022-10-24T16:16:49.592Z,74.00
2022-10-24T16:19:16.282Z,73.98
2022-10-24T16:21:43.103Z,73.77
2022-10-24T16:24:10.538Z,74.23
2022-10-24T16:26:37.505Z,74.37
2022-10-24T16:29:04.729Z,74.18
2022-10-24T16:31:31.861Z,74.25
2022-10-24T16:33:58.871Z,74.25
2022-10-24T16:36:25.864Z,74.33
2022-10-24T16:38:53.681Z,74.22
2022-10-24T16:41:25.309Z,74.13
2022-10-24T16:43:56.464Z,74.36
2022-10-24T16:46:24.252Z,74.09
2022-10-24T16:48:51.150Z,74.11
2022-10-24T16:51:20.841Z,74.19
2022-10-24T16:53:47.546Z,74.08
2022-10-24T16:56:15.908Z,74.31
2022-10-24T16:58:43.364Z,74.08
2022-10-24T17:01:12.221Z,74.19
2022-10-24T17:03:39.680Z,74.27
2022-10-24T17:06:07.128Z,74.39
2022-10-24T17:08:34.317Z,74.10
2022-10-24T17:11:01.024Z,74.29
2022-10-24T17:13:28.289Z,74.35
2022-10-24T17:15:55.231Z,74.08
2022-10-24T17:18:23.514Z,74.03
2022-10-24T17:20:50.411Z,74.04
2022-10-24T17:23:19.383Z,74.23
2022-10-24T17:25:46.257Z,74.07
2022-10-24T17:28:13.965Z,74.18
2022-10-24T17:30:40.783Z,74.15
2022-10-24T17:33:07.622Z,73.89
2022-10-24T17:35:36.444Z,73.89
2022-10-24T17:38:29.040Z,73.75
2022-10-24T17:40:58.014Z,73.75
2022-10-24T17:43:26.662Z,73.79
2022-10-24T17:45:55.011Z,73.73
2022-10-24T17:48:22.717Z,74.01
2022-10-24T17:50:49.633Z,74.35
2022-10-24T17:53:18.220Z,74.03
2022-10-24T17:55:47.200Z,74.09
2022-10-24T17:58:15.573Z,74.12
2022-10-24T18:00:42.848Z,74.33
2022-10-24T18:03:09.825Z,74.51
2022-10-24T18:05:38.221Z,74.76
2022-10-24T18:08:10.121Z,74.81
2022-10-24T18:10:39.270Z,75.02
2022-10-24T18:13:06.757Z,74.90
2022-10-24T18:15:33.623Z,75.09
2022-10-24T18:18:00.314Z,75.13
2022-10-24T18:20:27.108Z,75.12
2022-10-24T18:22:53.815Z,75.02
2022-10-24T18:25:22.988Z,75.01
2022-10-24T18:27:50.376Z,75.16
2022-10-24T18:30:17.658Z,75.19
2022-10-24T18:32:44.835Z,75.04
2022-10-24T18:35:12.073Z,74.90
2022-10-24T18:37:38.852Z,74.79
2022-10-24T18:40:07.486Z,74.83
2022-10-24T18:42:54.021Z,74.74
2022-10-24T18:45:23.630Z,74.78
2022-10-24T18:47:51.540Z,74.77
2022-10-24T18:50:23.335Z,74.49
2022-10-24T18:53:15.974Z,74.47
2022-10-24T18:55:45.929Z,74.60
2022-10-24T18:58:13.623Z,74.48
2022-10-24T19:00:42.213Z,74.42
2022-10-24T19:03:25.091Z,74.37
2022-10-24T19:05:55.601Z,74.08
2022-10-24T19:08:24.216Z,74.05
2022-10-24T19:10:52.766Z,73.78
2022-10-24T19:13:19.495Z,73.99
2022-10-24T19:15:53.748Z,73.70
2022-10-24T19:18:20.678Z,73.92
2022-10-24T19:20:47.425Z,73.79
2022-10-24T19:23:17.642Z,73.92
2022-10-24T19:25:45.121Z,73.83
2022-10-24T19:28:16.489Z,73.79
2022-10-24T19:30:44.680Z,73.66
2022-10-24T19:33:12.785Z,73.58
2022-10-24T19:35:44.989Z,73.69
2022-10-24T19:38:11.694Z,73.76
2022-10-24T19:40:53.541Z,73.51
2022-10-24T19:43:21.632Z,73.58
2022-10-24T19:46:07.103Z,73.50
2022-10-24T19:48:41.353Z,73.43
2022-10-24T19:51:12.496Z,73.07
2022-10-24T19:53:41.123Z,73.34
2022-10-24T19:56:19.001Z,73.53
2022-10-24T19:58:48.059Z,73.36
2022-10-24T20:01:17.627Z,73.35
2022-10-24T20:03:45.562Z,73.47
2022-10-24T20:06:12.513Z,73.34
2022-10-24T20:08:39.257Z,73.14
2022-10-24T20:11:06.649Z,73.51
2022-10-24T20:13:33.340Z,73.50
2022-10-24T20:16:03.666Z,73.41
2022-10-24T20:18:32.486Z,73.59
2022-10-24T20:20:59.564Z,73.56
2022-10-24T20:23:26.372Z,73.60
2022-10-24T20:26:02.164Z,73.53
2022-10-24T20:28:29.243Z,73.53
2022-10-24T20:30:55.954Z,73.62
2022-10-24T20:33:22.670Z,73.58
2022-10-24T20:35:49.355Z,73.52
2022-10-24T20:38:16.036Z,73.51
2022-10-24T20:40:42.747Z,73.55
2022-10-24T20:43:09.467Z,73.51
2022-10-24T20:45:40.115Z,73.55
2022-10-24T20:48:06.927Z,73.52
2022-10-24T20:50:33.861Z,73.38
2022-10-24T20:53:00.686Z,73.20
2022-10-24T20:55:39.431Z,73.36
2022-10-24T20:58:12.553Z,73.27
2022-10-24T21:03:06.006Z,73.19
2022-10-24T21:05:34.875Z,73.13
2022-10-24T21:08:01.563Z,73.04
2022-10-24T21:10:28.253Z,73.11
2022-10-24T21:12:55.266Z,73.43
2022-10-24T21:15:22.074Z,73.90
2022-10-24T21:17:49.113Z,73.35
2022-10-24T21:20:15.947Z,73.53
2022-10-24T21:22:42.673Z,73.58
2022-10-24T21:25:09.645Z,73.28
2022-10-24T21:27:38.248Z,73.67
2022-10-24T21:30:05.431Z,73.57
2022-10-24T21:32:33.273Z,73.61
2022-10-24T21:35:00.019Z,73.51
2022-10-24T21:37:26.758Z,73.59
2022-10-24T21:39:53.457Z,73.53
2022-10-24T21:42:20.226Z,73.59
2022-10-24T21:44:46.951Z,73.46
2022-10-24T21:47:13.690Z,73.65
2022-10-24T21:49:40.428Z,73.85
2022-10-24T21:52:07.120Z,74.02
2022-10-24T21:54:33.862Z,73.64
2022-10-24T21:57:00.557Z,73.84
2022-10-24T21:59:27.273Z,73.87
2022-10-24T22:01:54.112Z,73.96
2022-10-24T22:04:21.070Z,73.82
2022-10-24T22:06:48.138Z,73.76
2022-10-24T22:09:18.285Z,73.72
2022-10-24T22:11:45.215Z,73.61
2022-10-24T22:14:13.959Z,73.77
2022-10-24T22:16:41.425Z,73.69
2022-10-24T22:19:08.436Z,73.55
2022-10-24T22:21:38.081Z,73.69
2022-10-24T22:26:39.313Z,73.50
2022-10-24T22:29:07.022Z,73.47
2022-10-24T22:31:34.137Z,73.46
2022-10-24T22:34:01.059Z,73.40
2022-10-24T22:36:56.814Z,73.37
2022-10-24T22:39:25.162Z,73.37
2022-10-24T22:41:52.532Z,73.24
2022-10-24T22:44:20.646Z,73.31
2022-10-24T22:47:26.374Z,73.14
2022-10-24T22:50:12.926Z,73.15
2022-10-24T22:52:39.834Z,72.83
2022-10-24T22:55:34.809Z,73.03
2022-10-24T22:58:01.824Z,73.25
2022-10-24T23:00:28.806Z,73.14
2022-10-24T23:03:06.792Z,73.25
2022-10-24T23:05:38.514Z,73.39
2022-10-24T23:08:08.197Z,73.19
2022-10-24T23:10:36.370Z,73.46
2022-10-24T23:13:03.318Z,73.38
2022-10-24T23:15:30.229Z,73.64
2022-10-24T23:17:57.050Z,73.82
2022-10-24T23:20:40.059Z,73.66
2022-10-24T23:23:16.993Z,73.69
2022-10-24T23:25:57.866Z,73.87
2022-10-24T23:28:31.198Z,73.65
2022-10-24T23:30:58.087Z,73.58
2022-10-24T23:33:29.410Z,73.43
2022-10-24T23:35:59.885Z,73.60
2022-10-24T23:38:27.264Z,73.61
2022-10-24T23:40:54.282Z,73.49
2022-10-24T23:43:21.606Z,73.42
2022-10-24T23:45:53.476Z,73.48
2022-10-24T23:48:20.190Z,73.37
2022-10-24T23:50:54.078Z,73.38
2022-10-24T23:53:32.948Z,73.30
2022-10-24T23:58:31.485Z,73.40
